sensor_id;sensor_type;location;lat;lon;timestamp;P1;durP1;ratioP1;P2;durP2;ratioP2
7795;SDS011;3942;51.518;6.912;2023-05-14T00:01:46;13.75;;;11.30;;
7795;SDS011;3942;51.518;6.912;2023-05-14T00:06:47;16.48;;;11.60;;
7795;SDS011;3942;51.518;6.912;2023-05-14T00:11:51;15.02;;;11.70;;
7795;SDS011;3942;51.518;6.912;2023-05-14T00:16:53;16.67;;;12.52;;
7795;SDS011;3942;51.518;6.912;2023-05-14T00:21:55;17.50;;;12.38;;
7795;SDS011;3942;51.518;6.912;2023-05-14T00:26:58;22.65;;;14.63;;
7795;SDS011;3942;51.518;6.912;2023-05-14T00:32:00;16.95;;;12.95;;
7795;SDS011;3942;51.518;6.912;2023-05-14T00:37:02;15.55;;;13.15;;
7795;SDS011;3942;51.518;6.912;2023-05-14T00:42:05;14.35;;;11.77;;
7795;SDS011;3942;51.518;6.912;2023-05-14T00:47:07;15.15;;;12.57;;
7795;SDS011;3942;51.518;6.912;2023-05-14T00:52:09;17.15;;;13.48;;
7795;SDS011;3942;51.518;6.912;2023-05-14T00:57:13;15.90;;;13.80;;
7795;SDS011;3942;51.518;6.912;2023-05-14T01:02:15;17.02;;;13.63;;
7795;SDS011;3942;51.518;6.912;2023-05-14T01:07:19;17.00;;;14.38;;
7795;SDS011;3942;51.518;6.912;2023-05-14T01:12:32;16.30;;;13.85;;
7795;SDS011;3942;51.518;6.912;2023-05-14T01:17:47;16.40;;;12.90;;
7795;SDS011;3942;51.518;6.912;2023-05-14T01:22:54;16.13;;;13.55;;
7795;SDS011;3942;51.518;6.912;2023-05-14T01:27:57;16.55;;;14.55;;
7795;SDS011;3942;51.518;6.912;2023-05-14T01:33:04;16.13;;;14.00;;
7795;SDS011;3942;51.518;6.912;2023-05-14T01:38:10;19.13;;;14.80;;
7795;SDS011;3942;51.518;6.912;2023-05-14T01:43:14;16.13;;;14.30;;
7795;SDS011;3942;51.518;6.912;2023-05-14T01:48:16;20.90;;;15.35;;
7795;SDS011;3942;51.518;6.912;2023-05-14T01:53:19;18.60;;;15.00;;
7795;SDS011;3942;51.518;6.912;2023-05-14T01:58:21;18.33;;;15.98;;
7795;SDS011;3942;51.518;6.912;2023-05-14T02:03:23;18.58;;;15.45;;
7795;SDS011;3942;51.518;6.912;2023-05-14T02:08:26;19.90;;;15.85;;
7795;SDS011;3942;51.518;6.912;2023-05-14T02:13:28;19.23;;;16.23;;
7795;SDS011;3942;51.518;6.912;2023-05-14T02:18:30;19.38;;;17.20;;
7795;SDS011;3942;51.518;6.912;2023-05-14T02:23:34;19.15;;;16.48;;
7795;SDS011;3942;51.518;6.912;2023-05-14T02:28:36;20.13;;;15.57;;
7795;SDS011;3942;51.518;6.912;2023-05-14T02:33:37;17.25;;;15.45;;
7795;SDS011;3942;51.518;6.912;2023-05-14T02:38:41;19.15;;;15.35;;
7795;SDS011;3942;51.518;6.912;2023-05-14T02:43:43;18.55;;;15.38;;
7795;SDS011;3942;51.518;6.912;2023-05-14T02:48:45;18.77;;;14.57;;
7795;SDS011;3942;51.518;6.912;2023-05-14T02:53:48;17.98;;;15.73;;
7795;SDS011;3942;51.518;6.912;2023-05-14T02:58:50;19.05;;;15.32;;
7795;SDS011;3942;51.518;6.912;2023-05-14T03:03:52;17.08;;;15.27;;
7795;SDS011;3942;51.518;6.912;2023-05-14T03:08:55;17.92;;;15.15;;
7795;SDS011;3942;51.518;6.912;2023-05-14T03:13:57;19.63;;;16.40;;
7795;SDS011;3942;51.518;6.912;2023-05-14T03:18:59;18.92;;;15.88;;
7795;SDS011;3942;51.518;6.912;2023-05-14T03:24:02;23.88;;;16.77;;
7795;SDS011;3942;51.518;6.912;2023-05-14T03:29:04;22.65;;;15.65;;
7795;SDS011;3942;51.518;6.912;2023-05-14T03:34:06;20.33;;;15.98;;
7795;SDS011;3942;51.518;6.912;2023-05-14T03:39:09;17.90;;;15.27;;
7795;SDS011;3942;51.518;6.912;2023-05-14T03:44:14;19.45;;;16.30;;
7795;SDS011;3942;51.518;6.912;2023-05-14T03:49:16;20.65;;;15.88;;
7795;SDS011;3942;51.518;6.912;2023-05-14T03:54:19;18.23;;;15.45;;
7795;SDS011;3942;51.518;6.912;2023-05-14T03:59:21;20.67;;;16.38;;
7795;SDS011;3942;51.518;6.912;2023-05-14T04:04:23;17.63;;;15.60;;
7795;SDS011;3942;51.518;6.912;2023-05-14T04:09:26;18.65;;;15.32;;
7795;SDS011;3942;51.518;6.912;2023-05-14T04:14:28;19.30;;;15.23;;
7795;SDS011;3942;51.518;6.912;2023-05-14T04:19:30;17.75;;;14.23;;
7795;SDS011;3942;51.518;6.912;2023-05-14T04:24:33;19.13;;;14.68;;
7795;SDS011;3942;51.518;6.912;2023-05-14T04:29:35;16.50;;;13.30;;
7795;SDS011;3942;51.518;6.912;2023-05-14T04:34:37;17.75;;;13.52;;
7795;SDS011;3942;51.518;6.912;2023-05-14T04:39:41;18.52;;;14.48;;
7795;SDS011;3942;51.518;6.912;2023-05-14T04:44:43;14.98;;;13.38;;
7795;SDS011;3942;51.518;6.912;2023-05-14T04:49:45;16.75;;;13.93;;
7795;SDS011;3942;51.518;6.912;2023-05-14T04:54:48;16.95;;;13.52;;
7795;SDS011;3942;51.518;6.912;2023-05-14T04:59:50;17.67;;;13.93;;
7795;SDS011;3942;51.518;6.912;2023-05-14T05:04:52;17.15;;;14.13;;
7795;SDS011;3942;51.518;6.912;2023-05-14T05:09:55;18.35;;;14.45;;
7795;SDS011;3942;51.518;6.912;2023-05-14T05:14:57;15.75;;;13.75;;
7795;SDS011;3942;51.518;6.912;2023-05-14T05:19:58;20.00;;;15.13;;
7795;SDS011;3942;51.518;6.912;2023-05-14T05:25:02;19.52;;;14.57;;
7795;SDS011;3942;51.518;6.912;2023-05-14T05:30:05;17.70;;;14.45;;
7795;SDS011;3942;51.518;6.912;2023-05-14T05:35:08;16.70;;;14.32;;
7795;SDS011;3942;51.518;6.912;2023-05-14T05:40:11;18.98;;;15.25;;
7795;SDS011;3942;51.518;6.912;2023-05-14T05:45:14;18.17;;;14.95;;
7795;SDS011;3942;51.518;6.912;2023-05-14T05:50:16;19.48;;;16.10;;
7795;SDS011;3942;51.518;6.912;2023-05-14T05:55:20;24.27;;;17.80;;
7795;SDS011;3942;51.518;6.912;2023-05-14T06:00:22;22.67;;;17.45;;
7795;SDS011;3942;51.518;6.912;2023-05-14T06:05:24;21.33;;;16.52;;
7795;SDS011;3942;51.518;6.912;2023-05-14T06:10:27;18.90;;;16.48;;
7795;SDS011;3942;51.518;6.912;2023-05-14T06:15:29;23.75;;;18.50;;
7795;SDS011;3942;51.518;6.912;2023-05-14T06:20:31;24.10;;;17.83;;
7795;SDS011;3942;51.518;6.912;2023-05-14T06:25:35;24.08;;;17.10;;
7795;SDS011;3942;51.518;6.912;2023-05-14T06:30:36;26.83;;;18.60;;
7795;SDS011;3942;51.518;6.912;2023-05-14T06:35:38;23.42;;;18.10;;
7795;SDS011;3942;51.518;6.912;2023-05-14T06:40:42;22.20;;;16.05;;
7795;SDS011;3942;51.518;6.912;2023-05-14T06:45:47;17.52;;;14.40;;
7795;SDS011;3942;51.518;6.912;2023-05-14T06:50:49;30.50;;;21.13;;
7795;SDS011;3942;51.518;6.912;2023-05-14T06:55:52;19.92;;;15.95;;
7795;SDS011;3942;51.518;6.912;2023-05-14T07:00:55;20.98;;;16.00;;
7795;SDS011;3942;51.518;6.912;2023-05-14T07:05:57;24.65;;;19.33;;
7795;SDS011;3942;51.518;6.912;2023-05-14T07:11:01;16.30;;;12.90;;
7795;SDS011;3942;51.518;6.912;2023-05-14T07:16:03;14.63;;;13.07;;
7795;SDS011;3942;51.518;6.912;2023-05-14T07:21:05;14.35;;;12.45;;
7795;SDS011;3942;51.518;6.912;2023-05-14T07:26:08;18.52;;;13.15;;
7795;SDS011;3942;51.518;6.912;2023-05-14T07:31:10;15.40;;;12.60;;
7795;SDS011;3942;51.518;6.912;2023-05-14T07:36:12;16.90;;;11.77;;
7795;SDS011;3942;51.518;6.912;2023-05-14T07:41:15;18.00;;;11.80;;
7795;SDS011;3942;51.518;6.912;2023-05-14T07:46:17;21.55;;;11.60;;
7795;SDS011;3942;51.518;6.912;2023-05-14T07:51:19;14.48;;;10.35;;
7795;SDS011;3942;51.518;6.912;2023-05-14T07:56:23;12.25;;;9.90;;
7795;SDS011;3942;51.518;6.912;2023-05-14T08:01:25;13.57;;;7.90;;
7795;SDS011;3942;51.518;6.912;2023-05-14T08:06:27;11.57;;;7.97;;
7795;SDS011;3942;51.518;6.912;2023-05-14T08:11:31;12.40;;;7.82;;
7795;SDS011;3942;51.518;6.912;2023-05-14T08:16:32;10.38;;;6.57;;
7795;SDS011;3942;51.518;6.912;2023-05-14T08:21:34;12.73;;;6.38;;
7795;SDS011;3942;51.518;6.912;2023-05-14T08:26:37;9.05;;;6.68;;
7795;SDS011;3942;51.518;6.912;2023-05-14T08:31:39;10.10;;;5.93;;
7795;SDS011;3942;51.518;6.912;2023-05-14T08:36:41;9.32;;;5.90;;
7795;SDS011;3942;51.518;6.912;2023-05-14T08:41:44;24.40;;;18.50;;
7795;SDS011;3942;51.518;6.912;2023-05-14T08:46:47;6.97;;;5.38;;
7795;SDS011;3942;51.518;6.912;2023-05-14T08:51:51;8.60;;;5.55;;
7795;SDS011;3942;51.518;6.912;2023-05-14T08:56:56;14.80;;;4.20;;
7795;SDS011;3942;51.518;6.912;2023-05-14T09:02:00;9.77;;;3.70;;
7795;SDS011;3942;51.518;6.912;2023-05-14T09:07:03;10.77;;;3.92;;
7795;SDS011;3942;51.518;6.912;2023-05-14T09:12:10;7.43;;;3.55;;
7795;SDS011;3942;51.518;6.912;2023-05-14T09:17:13;7.50;;;6.10;;
7795;SDS011;3942;51.518;6.912;2023-05-14T09:22:16;17.13;;;5.15;;
7795;SDS011;3942;51.518;6.912;2023-05-14T09:27:19;10.25;;;6.88;;
7795;SDS011;3942;51.518;6.912;2023-05-14T09:32:21;10.25;;;4.53;;
7795;SDS011;3942;51.518;6.912;2023-05-14T09:37:23;8.45;;;4.50;;
7795;SDS011;3942;51.518;6.912;2023-05-14T09:42:27;8.70;;;4.50;;
7795;SDS011;3942;51.518;6.912;2023-05-14T09:47:28;10.75;;;4.40;;
7795;SDS011;3942;51.518;6.912;2023-05-14T09:52:31;15.90;;;8.63;;
7795;SDS011;3942;51.518;6.912;2023-05-14T09:57:35;18.40;;;13.60;;
7795;SDS011;3942;51.518;6.912;2023-05-14T10:02:37;8.50;;;5.57;;
7795;SDS011;3942;51.518;6.912;2023-05-14T10:07:41;9.93;;;6.35;;
7795;SDS011;3942;51.518;6.912;2023-05-14T10:12:47;6.05;;;5.00;;
7795;SDS011;3942;51.518;6.912;2023-05-14T10:22:56;9.35;;;4.28;;
7795;SDS011;3942;51.518;6.912;2023-05-14T10:28:00;13.35;;;6.63;;
7795;SDS011;3942;51.518;6.912;2023-05-14T10:33:06;18.08;;;7.90;;
7795;SDS011;3942;51.518;6.912;2023-05-14T10:38:09;15.05;;;6.90;;
7795;SDS011;3942;51.518;6.912;2023-05-14T10:43:12;12.20;;;7.15;;
7795;SDS011;3942;51.518;6.912;2023-05-14T10:48:16;10.95;;;9.23;;
7795;SDS011;3942;51.518;6.912;2023-05-14T10:53:18;6.22;;;4.43;;
7795;SDS011;3942;51.518;6.912;2023-05-14T10:58:22;6.13;;;3.97;;
7795;SDS011;3942;51.518;6.912;2023-05-14T11:03:27;12.52;;;7.57;;
7795;SDS011;3942;51.518;6.912;2023-05-14T11:08:29;7.38;;;4.30;;
7795;SDS011;3942;51.518;6.912;2023-05-14T11:13:34;5.53;;;3.75;;
7795;SDS011;3942;51.518;6.912;2023-05-14T11:18:36;16.88;;;11.18;;
7795;SDS011;3942;51.518;6.912;2023-05-14T11:23:40;15.40;;;10.85;;
7795;SDS011;3942;51.518;6.912;2023-05-14T11:28:43;4.63;;;3.35;;
7795;SDS011;3942;51.518;6.912;2023-05-14T11:33:45;6.38;;;3.40;;
7795;SDS011;3942;51.518;6.912;2023-05-14T11:38:47;6.95;;;3.80;;
7795;SDS011;3942;51.518;6.912;2023-05-14T11:43:52;6.38;;;3.50;;
7795;SDS011;3942;51.518;6.912;2023-05-14T11:48:54;8.35;;;3.15;;
7795;SDS011;3942;51.518;6.912;2023-05-14T11:53:56;5.57;;;3.65;;
7795;SDS011;3942;51.518;6.912;2023-05-14T11:58:59;44.08;;;35.47;;
7795;SDS011;3942;51.518;6.912;2023-05-14T12:04:02;66.40;;;50.67;;
7795;SDS011;3942;51.518;6.912;2023-05-14T12:09:04;20.55;;;15.43;;
7795;SDS011;3942;51.518;6.912;2023-05-14T12:14:13;9.13;;;6.15;;
7795;SDS011;3942;51.518;6.912;2023-05-14T12:19:16;5.80;;;4.40;;
7795;SDS011;3942;51.518;6.912;2023-05-14T12:24:19;7.85;;;4.97;;
7795;SDS011;3942;51.518;6.912;2023-05-14T12:29:22;10.73;;;5.43;;
7795;SDS011;3942;51.518;6.912;2023-05-14T12:34:26;6.25;;;3.60;;
7795;SDS011;3942;51.518;6.912;2023-05-14T12:39:29;5.28;;;3.35;;
7795;SDS011;3942;51.518;6.912;2023-05-14T12:44:34;5.07;;;3.17;;
7795;SDS011;3942;51.518;6.912;2023-05-14T12:49:35;3.83;;;2.80;;
7795;SDS011;3942;51.518;6.912;2023-05-14T12:54:37;10.40;;;7.03;;
7795;SDS011;3942;51.518;6.912;2023-05-14T12:59:43;6.10;;;3.78;;
7795;SDS011;3942;51.518;6.912;2023-05-14T13:04:45;9.25;;;5.53;;
7795;SDS011;3942;51.518;6.912;2023-05-14T13:09:47;6.65;;;3.10;;
7795;SDS011;3942;51.518;6.912;2023-05-14T13:14:50;5.68;;;2.70;;
7795;SDS011;3942;51.518;6.912;2023-05-14T13:19:52;6.72;;;3.95;;
7795;SDS011;3942;51.518;6.912;2023-05-14T13:24:54;7.43;;;4.50;;
7795;SDS011;3942;51.518;6.912;2023-05-14T13:29:57;13.23;;;10.73;;
7795;SDS011;3942;51.518;6.912;2023-05-14T13:34:59;18.67;;;15.65;;
7795;SDS011;3942;51.518;6.912;2023-05-14T13:40:00;4.55;;;3.20;;
7795;SDS011;3942;51.518;6.912;2023-05-14T13:45:05;15.32;;;10.40;;
7795;SDS011;3942;51.518;6.912;2023-05-14T13:50:08;71.18;;;56.72;;
7795;SDS011;3942;51.518;6.912;2023-05-14T13:55:10;72.43;;;58.83;;
7795;SDS011;3942;51.518;6.912;2023-05-14T14:00:14;24.90;;;20.30;;
7795;SDS011;3942;51.518;6.912;2023-05-14T14:05:16;4.72;;;3.33;;
7795;SDS011;3942;51.518;6.912;2023-05-14T14:10:18;3.97;;;2.90;;
7795;SDS011;3942;51.518;6.912;2023-05-14T14:15:22;4.57;;;3.10;;
7795;SDS011;3942;51.518;6.912;2023-05-14T14:20:24;5.53;;;4.10;;
7795;SDS011;3942;51.518;6.912;2023-05-14T14:25:26;29.30;;;22.23;;
7795;SDS011;3942;51.518;6.912;2023-05-14T14:30:29;6.38;;;4.40;;
7795;SDS011;3942;51.518;6.912;2023-05-14T14:35:32;8.98;;;7.25;;
7795;SDS011;3942;51.518;6.912;2023-05-14T14:40:34;4.40;;;3.60;;
7795;SDS011;3942;51.518;6.912;2023-05-14T14:45:38;10.55;;;6.63;;
7795;SDS011;3942;51.518;6.912;2023-05-14T14:50:39;6.78;;;3.40;;
7795;SDS011;3942;51.518;6.912;2023-05-14T14:55:41;6.22;;;3.47;;
7795;SDS011;3942;51.518;6.912;2023-05-14T15:00:45;6.95;;;4.00;;
7795;SDS011;3942;51.518;6.912;2023-05-14T15:05:47;7.03;;;3.35;;
7795;SDS011;3942;51.518;6.912;2023-05-14T15:10:49;4.22;;;3.60;;
7795;SDS011;3942;51.518;6.912;2023-05-14T15:15:52;17.70;;;10.98;;
7795;SDS011;3942;51.518;6.912;2023-05-14T15:20:54;13.50;;;9.00;;
7795;SDS011;3942;51.518;6.912;2023-05-14T15:25:56;7.63;;;6.15;;
7795;SDS011;3942;51.518;6.912;2023-05-14T15:30:59;19.75;;;10.45;;
7795;SDS011;3942;51.518;6.912;2023-05-14T15:36:01;8.85;;;6.57;;
7795;SDS011;3942;51.518;6.912;2023-05-14T15:41:03;3.28;;;2.47;;
7795;SDS011;3942;51.518;6.912;2023-05-14T15:46:07;5.13;;;4.53;;
7795;SDS011;3942;51.518;6.912;2023-05-14T15:51:09;4.68;;;3.92;;
7795;SDS011;3942;51.518;6.912;2023-05-14T15:56:10;5.18;;;3.80;;
7795;SDS011;3942;51.518;6.912;2023-05-14T16:01:14;5.57;;;4.22;;
7795;SDS011;3942;51.518;6.912;2023-05-14T16:06:16;5.57;;;3.33;;
7795;SDS011;3942;51.518;6.912;2023-05-14T16:11:17;45.28;;;35.63;;
7795;SDS011;3942;51.518;6.912;2023-05-14T16:16:21;50.92;;;38.65;;
7795;SDS011;3942;51.518;6.912;2023-05-14T16:21:24;46.65;;;32.58;;
7795;SDS011;3942;51.518;6.912;2023-05-14T16:26:26;18.85;;;14.52;;
7795;SDS011;3942;51.518;6.912;2023-05-14T16:31:29;10.68;;;6.35;;
7795;SDS011;3942;51.518;6.912;2023-05-14T16:36:31;8.07;;;4.90;;
7795;SDS011;3942;51.518;6.912;2023-05-14T16:41:33;6.70;;;4.93;;
7795;SDS011;3942;51.518;6.912;2023-05-14T16:46:36;6.63;;;4.53;;
7795;SDS011;3942;51.518;6.912;2023-05-14T16:51:38;6.05;;;4.65;;
7795;SDS011;3942;51.518;6.912;2023-05-14T16:56:42;7.90;;;4.97;;
7795;SDS011;3942;51.518;6.912;2023-05-14T17:01:48;8.95;;;4.70;;
7795;SDS011;3942;51.518;6.912;2023-05-14T17:06:50;7.47;;;4.57;;
7795;SDS011;3942;51.518;6.912;2023-05-14T17:11:52;8.88;;;5.00;;
7795;SDS011;3942;51.518;6.912;2023-05-14T17:16:55;8.18;;;4.95;;
7795;SDS011;3942;51.518;6.912;2023-05-14T17:21:57;7.32;;;5.00;;
7795;SDS011;3942;51.518;6.912;2023-05-14T17:26:58;8.52;;;4.97;;
7795;SDS011;3942;51.518;6.912;2023-05-14T17:32:02;5.80;;;4.78;;
7795;SDS011;3942;51.518;6.912;2023-05-14T17:37:04;6.55;;;5.05;;
7795;SDS011;3942;51.518;6.912;2023-05-14T17:42:06;20.30;;;14.55;;
7795;SDS011;3942;51.518;6.912;2023-05-14T17:47:10;13.18;;;9.20;;
7795;SDS011;3942;51.518;6.912;2023-05-14T17:52:12;19.85;;;13.88;;
7795;SDS011;3942;51.518;6.912;2023-05-14T17:57:14;21.70;;;15.65;;
7795;SDS011;3942;51.518;6.912;2023-05-14T18:02:17;20.45;;;13.15;;
7795;SDS011;3942;51.518;6.912;2023-05-14T18:07:19;20.08;;;16.33;;
7795;SDS011;3942;51.518;6.912;2023-05-14T18:12:21;7.13;;;5.93;;
7795;SDS011;3942;51.518;6.912;2023-05-14T18:17:25;6.65;;;5.10;;
7795;SDS011;3942;51.518;6.912;2023-05-14T18:22:27;6.70;;;5.25;;
7795;SDS011;3942;51.518;6.912;2023-05-14T18:27:29;15.90;;;11.60;;
7795;SDS011;3942;51.518;6.912;2023-05-14T18:32:32;34.72;;;27.52;;
7795;SDS011;3942;51.518;6.912;2023-05-14T18:37:34;17.45;;;13.48;;
7795;SDS011;3942;51.518;6.912;2023-05-14T18:42:36;20.83;;;15.98;;
7795;SDS011;3942;51.518;6.912;2023-05-14T18:47:39;10.05;;;7.50;;
7795;SDS011;3942;51.518;6.912;2023-05-14T18:52:41;6.22;;;4.75;;
7795;SDS011;3942;51.518;6.912;2023-05-14T18:57:43;21.88;;;16.38;;
7795;SDS011;3942;51.518;6.912;2023-05-14T19:02:46;9.40;;;6.43;;
7795;SDS011;3942;51.518;6.912;2023-05-14T19:07:48;9.10;;;6.18;;
7795;SDS011;3942;51.518;6.912;2023-05-14T19:12:50;14.18;;;10.95;;
7795;SDS011;3942;51.518;6.912;2023-05-14T19:17:54;20.58;;;13.57;;
7795;SDS011;3942;51.518;6.912;2023-05-14T19:22:55;6.28;;;4.53;;
7795;SDS011;3942;51.518;6.912;2023-05-14T19:27:57;7.07;;;4.30;;
7795;SDS011;3942;51.518;6.912;2023-05-14T19:33:01;6.90;;;4.57;;
7795;SDS011;3942;51.518;6.912;2023-05-14T19:38:03;7.38;;;5.25;;
7795;SDS011;3942;51.518;6.912;2023-05-14T19:43:06;5.45;;;4.43;;
7795;SDS011;3942;51.518;6.912;2023-05-14T19:48:09;8.70;;;4.95;;
7795;SDS011;3942;51.518;6.912;2023-05-14T19:53:12;5.93;;;4.97;;
7795;SDS011;3942;51.518;6.912;2023-05-14T19:58:14;6.68;;;4.97;;
7795;SDS011;3942;51.518;6.912;2023-05-14T20:03:18;7.38;;;5.03;;
7795;SDS011;3942;51.518;6.912;2023-05-14T20:08:22;13.73;;;8.73;;
7795;SDS011;3942;51.518;6.912;2023-05-14T20:13:24;8.45;;;6.82;;
7795;SDS011;3942;51.518;6.912;2023-05-14T20:18:27;7.40;;;5.30;;
7795;SDS011;3942;51.518;6.912;2023-05-14T20:23:30;6.65;;;4.85;;
7795;SDS011;3942;51.518;6.912;2023-05-14T20:28:32;7.32;;;5.15;;
7795;SDS011;3942;51.518;6.912;2023-05-14T20:33:35;7.88;;;4.70;;
7795;SDS011;3942;51.518;6.912;2023-05-14T20:38:37;6.43;;;4.63;;
7795;SDS011;3942;51.518;6.912;2023-05-14T20:43:39;7.95;;;4.97;;
7795;SDS011;3942;51.518;6.912;2023-05-14T20:48:43;7.57;;;4.57;;
7795;SDS011;3942;51.518;6.912;2023-05-14T20:53:44;12.52;;;7.28;;
7795;SDS011;3942;51.518;6.912;2023-05-14T20:58:47;9.18;;;5.60;;
7795;SDS011;3942;51.518;6.912;2023-05-14T21:03:50;6.18;;;4.47;;
7795;SDS011;3942;51.518;6.912;2023-05-14T21:08:52;7.95;;;4.72;;
7795;SDS011;3942;51.518;6.912;2023-05-14T21:13:54;11.38;;;6.53;;
7795;SDS011;3942;51.518;6.912;2023-05-14T21:18:57;10.55;;;5.88;;
7795;SDS011;3942;51.518;6.912;2023-05-14T21:23:59;7.65;;;4.45;;
7795;SDS011;3942;51.518;6.912;2023-05-14T21:29:01;8.55;;;5.10;;
7795;SDS011;3942;51.518;6.912;2023-05-14T21:34:04;8.38;;;6.28;;
7795;SDS011;3942;51.518;6.912;2023-05-14T21:39:06;8.50;;;5.50;;
7795;SDS011;3942;51.518;6.912;2023-05-14T21:44:08;8.65;;;5.43;;
7795;SDS011;3942;51.518;6.912;2023-05-14T21:49:11;11.13;;;8.88;;
7795;SDS011;3942;51.518;6.912;2023-05-14T21:54:13;14.00;;;10.55;;
7795;SDS011;3942;51.518;6.912;2023-05-14T21:59:15;8.13;;;6.32;;
7795;SDS011;3942;51.518;6.912;2023-05-14T22:04:18;6.28;;;5.45;;
7795;SDS011;3942;51.518;6.912;2023-05-14T22:09:20;11.57;;;7.05;;
7795;SDS011;3942;51.518;6.912;2023-05-14T22:14:22;8.18;;;6.28;;
7795;SDS011;3942;51.518;6.912;2023-05-14T22:19:26;15.43;;;10.48;;
7795;SDS011;3942;51.518;6.912;2023-05-14T22:24:28;12.90;;;7.80;;
7795;SDS011;3942;51.518;6.912;2023-05-14T22:29:30;14.48;;;9.23;;
7795;SDS011;3942;51.518;6.912;2023-05-14T22:34:33;15.40;;;8.70;;
7795;SDS011;3942;51.518;6.912;2023-05-14T22:39:35;13.07;;;8.60;;
7795;SDS011;3942;51.518;6.912;2023-05-14T22:44:37;14.32;;;9.98;;
7795;SDS011;3942;51.518;6.912;2023-05-14T22:49:40;13.93;;;9.93;;
7795;SDS011;3942;51.518;6.912;2023-05-14T22:54:42;16.88;;;10.40;;
7795;SDS011;3942;51.518;6.912;2023-05-14T22:59:44;18.92;;;13.02;;
7795;SDS011;3942;51.518;6.912;2023-05-14T23:04:47;15.15;;;12.00;;
7795;SDS011;3942;51.518;6.912;2023-05-14T23:09:49;21.05;;;14.43;;
7795;SDS011;3942;51.518;6.912;2023-05-14T23:14:51;35.15;;;19.02;;
7795;SDS011;3942;51.518;6.912;2023-05-14T23:19:54;22.23;;;14.45;;
7795;SDS011;3942;51.518;6.912;2023-05-14T23:24:56;20.30;;;14.52;;
7795;SDS011;3942;51.518;6.912;2023-05-14T23:29:58;23.30;;;14.13;;
7795;SDS011;3942;51.518;6.912;2023-05-14T23:35:01;20.95;;;13.80;;
7795;SDS011;3942;51.518;6.912;2023-05-14T23:40:04;22.13;;;15.25;;
7795;SDS011;3942;51.518;6.912;2023-05-14T23:45:08;24.15;;;14.73;;
7795;SDS011;3942;51.518;6.912;2023-05-14T23:50:12;27.83;;;16.80;;
7795;SDS011;3942;51.518;6.912;2023-05-14T23:55:14;21.80;;;16.35;;
